Terminal Aerodrome Forecast
Issued by NWS

Current Version | Previous Version | Text Only | Print | Product List | Glossary Off
Versions: 1 2 3 4 5 6 7 8 9 10 11 12 13 14 15 16 17 18 19 20 21 22 23 24 25

587
FTUS41 KRLX 190935 AAC
TAFCKB
TAF AMD
KCKB 190935Z 1910/2006 25006KT 6SM -SHRA BR SCT004 OVC050
     FM191100 26006G20KT P6SM -SHRA OVC015
     FM191700 31011G19KT P6SM OVC025
     FM192200 30012G19KT P6SM BKN040=

USA.gov is the U.S. government's official web portal to all federal, state and local government web resources and services.